sensor_id;sensor_type;location;lat;lon;timestamp;P1;durP1;ratioP1;P2;durP2;ratioP2
22378;SDS011;11357;49.990;7.370;2022-11-14T00:00:00;30.37;;;28.47;;
22378;SDS011;11357;49.990;7.370;2022-11-14T00:02:27;23.87;;;22.40;;
22378;SDS011;11357;49.990;7.370;2022-11-14T00:04:52;65.53;;;61.50;;
22378;SDS011;11357;49.990;7.370;2022-11-14T00:07:18;31.83;;;29.90;;
22378;SDS011;11357;49.990;7.370;2022-11-14T00:09:44;25.30;;;23.37;;
22378;SDS011;11357;49.990;7.370;2022-11-14T00:12:09;39.13;;;36.67;;
22378;SDS011;11357;49.990;7.370;2022-11-14T00:14:36;19.03;;;17.53;;
22378;SDS011;11357;49.990;7.370;2022-11-14T00:17:02;42.63;;;40.10;;
22378;SDS011;11357;49.990;7.370;2022-11-14T00:19:29;48.57;;;45.53;;
22378;SDS011;11357;49.990;7.370;2022-11-14T00:21:55;55.20;;;51.63;;
22378;SDS011;11357;49.990;7.370;2022-11-14T00:24:20;36.00;;;33.70;;
22378;SDS011;11357;49.990;7.370;2022-11-14T00:26:46;27.80;;;25.83;;
22378;SDS011;11357;49.990;7.370;2022-11-14T00:29:13;34.07;;;31.77;;
22378;SDS011;11357;49.990;7.370;2022-11-14T00:31:39;41.07;;;38.30;;
22378;SDS011;11357;49.990;7.370;2022-11-14T00:34:05;25.03;;;23.27;;
22378;SDS011;11357;49.990;7.370;2022-11-14T00:36:32;29.47;;;27.03;;
22378;SDS011;11357;49.990;7.370;2022-11-14T00:38:57;16.83;;;15.43;;
22378;SDS011;11357;49.990;7.370;2022-11-14T00:41:23;30.80;;;28.40;;
22378;SDS011;11357;49.990;7.370;2022-11-14T00:43:49;30.93;;;28.73;;
22378;SDS011;11357;49.990;7.370;2022-11-14T00:46:15;38.17;;;35.60;;
22378;SDS011;11357;49.990;7.370;2022-11-14T00:48:41;40.40;;;37.73;;
22378;SDS011;11357;49.990;7.370;2022-11-14T00:51:07;25.57;;;23.57;;
22378;SDS011;11357;49.990;7.370;2022-11-14T00:53:33;42.37;;;39.53;;
22378;SDS011;11357;49.990;7.370;2022-11-14T00:55:58;32.80;;;30.67;;
22378;SDS011;11357;49.990;7.370;2022-11-14T00:58:24;54.40;;;50.90;;
22378;SDS011;11357;49.990;7.370;2022-11-14T01:00:50;50.03;;;46.77;;
22378;SDS011;11357;49.990;7.370;2022-11-14T01:03:16;35.60;;;33.20;;
22378;SDS011;11357;49.990;7.370;2022-11-14T01:05:45;39.30;;;36.70;;
22378;SDS011;11357;49.990;7.370;2022-11-14T01:08:14;53.50;;;50.23;;
22378;SDS011;11357;49.990;7.370;2022-11-14T01:10:41;41.00;;;38.17;;
22378;SDS011;11357;49.990;7.370;2022-11-14T01:13:09;58.20;;;54.63;;
22378;SDS011;11357;49.990;7.370;2022-11-14T01:15:42;66.40;;;62.30;;
22378;SDS011;11357;49.990;7.370;2022-11-14T01:18:10;45.17;;;42.37;;
22378;SDS011;11357;49.990;7.370;2022-11-14T01:20:39;56.73;;;53.30;;
22378;SDS011;11357;49.990;7.370;2022-11-14T01:23:06;49.40;;;46.43;;
22378;SDS011;11357;49.990;7.370;2022-11-14T01:25:36;36.10;;;33.47;;
22378;SDS011;11357;49.990;7.370;2022-11-14T01:28:06;53.40;;;50.07;;
22378;SDS011;11357;49.990;7.370;2022-11-14T01:30:34;87.30;;;81.93;;
22378;SDS011;11357;49.990;7.370;2022-11-14T01:33:00;93.57;;;88.00;;
22378;SDS011;11357;49.990;7.370;2022-11-14T01:35:26;75.47;;;70.90;;
22378;SDS011;11357;49.990;7.370;2022-11-14T01:37:52;71.03;;;66.67;;
22378;SDS011;11357;49.990;7.370;2022-11-14T01:40:17;144.73;;;136.27;;
22378;SDS011;11357;49.990;7.370;2022-11-14T01:45:50;56.57;;;53.03;;
22378;SDS011;11357;49.990;7.370;2022-11-14T01:48:27;74.77;;;70.23;;
22378;SDS011;11357;49.990;7.370;2022-11-14T01:51:44;57.77;;;54.10;;
22378;SDS011;11357;49.990;7.370;2022-11-14T01:53:55;57.77;;;54.10;;
22378;SDS011;11357;49.990;7.370;2022-11-14T01:56:42;49.17;;;45.87;;
22378;SDS011;11357;49.990;7.370;2022-11-14T01:59:16;94.20;;;88.37;;
22378;SDS011;11357;49.990;7.370;2022-11-14T02:01:49;65.93;;;61.60;;
22378;SDS011;11357;49.990;7.370;2022-11-14T02:04:17;72.83;;;68.33;;
22378;SDS011;11357;49.990;7.370;2022-11-14T02:06:53;106.37;;;100.07;;
22378;SDS011;11357;49.990;7.370;2022-11-14T02:09:21;86.77;;;81.57;;
22378;SDS011;11357;49.990;7.370;2022-11-14T02:11:47;95.53;;;89.90;;
22378;SDS011;11357;49.990;7.370;2022-11-14T02:14:15;107.07;;;100.73;;
22378;SDS011;11357;49.990;7.370;2022-11-14T02:16:41;117.37;;;110.13;;
22378;SDS011;11357;49.990;7.370;2022-11-14T02:19:07;160.90;;;151.23;;
22378;SDS011;11357;49.990;7.370;2022-11-14T02:21:33;56.87;;;53.20;;
22378;SDS011;11357;49.990;7.370;2022-11-14T02:23:59;88.17;;;82.87;;
22378;SDS011;11357;49.990;7.370;2022-11-14T02:26:25;117.23;;;110.37;;
22378;SDS011;11357;49.990;7.370;2022-11-14T02:28:51;73.73;;;68.77;;
22378;SDS011;11357;49.990;7.370;2022-11-14T02:31:17;182.37;;;171.13;;
22378;SDS011;11357;49.990;7.370;2022-11-14T02:33:43;79.10;;;74.10;;
22378;SDS011;11357;49.990;7.370;2022-11-14T02:36:08;94.50;;;88.43;;
22378;SDS011;11357;49.990;7.370;2022-11-14T02:38:34;81.67;;;76.57;;
22378;SDS011;11357;49.990;7.370;2022-11-14T02:41:01;51.90;;;48.30;;
22378;SDS011;11357;49.990;7.370;2022-11-14T02:43:26;47.57;;;44.37;;
22378;SDS011;11357;49.990;7.370;2022-11-14T02:45:52;51.53;;;47.83;;
22378;SDS011;11357;49.990;7.370;2022-11-14T02:48:18;74.70;;;69.70;;
22378;SDS011;11357;49.990;7.370;2022-11-14T02:50:46;65.47;;;60.97;;
22378;SDS011;11357;49.990;7.370;2022-11-14T02:53:12;39.33;;;36.30;;
22378;SDS011;11357;49.990;7.370;2022-11-14T02:55:38;99.60;;;93.50;;
22378;SDS011;11357;49.990;7.370;2022-11-14T02:58:04;128.43;;;120.00;;
22378;SDS011;11357;49.990;7.370;2022-11-14T03:00:29;194.67;;;181.53;;
22378;SDS011;11357;49.990;7.370;2022-11-14T03:02:55;196.13;;;183.53;;
22378;SDS011;11357;49.990;7.370;2022-11-14T03:05:21;161.60;;;151.33;;
22378;SDS011;11357;49.990;7.370;2022-11-14T03:07:46;122.33;;;113.77;;
22378;SDS011;11357;49.990;7.370;2022-11-14T03:10:12;102.47;;;95.43;;
22378;SDS011;11357;49.990;7.370;2022-11-14T03:12:38;118.83;;;111.00;;
22378;SDS011;11357;49.990;7.370;2022-11-14T03:15:04;132.00;;;123.30;;
22378;SDS011;11357;49.990;7.370;2022-11-14T03:17:31;130.77;;;121.83;;
22378;SDS011;11357;49.990;7.370;2022-11-14T03:19:57;141.83;;;132.73;;
22378;SDS011;11357;49.990;7.370;2022-11-14T03:22:24;217.50;;;202.57;;
22378;SDS011;11357;49.990;7.370;2022-11-14T03:24:49;233.33;;;218.23;;
22378;SDS011;11357;49.990;7.370;2022-11-14T03:27:15;182.13;;;170.43;;
22378;SDS011;11357;49.990;7.370;2022-11-14T03:29:41;223.90;;;209.40;;
22378;SDS011;11357;49.990;7.370;2022-11-14T03:32:06;210.57;;;196.67;;
22378;SDS011;11357;49.990;7.370;2022-11-14T03:34:32;235.97;;;220.67;;
22378;SDS011;11357;49.990;7.370;2022-11-14T03:36:58;208.60;;;194.67;;
22378;SDS011;11357;49.990;7.370;2022-11-14T03:39:24;201.47;;;187.80;;
22378;SDS011;11357;49.990;7.370;2022-11-14T03:41:50;275.00;;;255.90;;
22378;SDS011;11357;49.990;7.370;2022-11-14T03:44:16;243.07;;;225.10;;
22378;SDS011;11357;49.990;7.370;2022-11-14T03:46:42;360.23;;;334.07;;
22378;SDS011;11357;49.990;7.370;2022-11-14T03:49:08;249.60;;;232.03;;
22378;SDS011;11357;49.990;7.370;2022-11-14T03:51:33;364.50;;;338.27;;
22378;SDS011;11357;49.990;7.370;2022-11-14T03:53:59;373.10;;;345.20;;
22378;SDS011;11357;49.990;7.370;2022-11-14T03:56:25;415.70;;;384.20;;
22378;SDS011;11357;49.990;7.370;2022-11-14T03:58:50;373.80;;;344.80;;
22378;SDS011;11357;49.990;7.370;2022-11-14T04:01:16;349.90;;;324.20;;
22378;SDS011;11357;49.990;7.370;2022-11-14T04:03:42;205.57;;;190.13;;
22378;SDS011;11357;49.990;7.370;2022-11-14T04:06:07;338.57;;;313.93;;
22378;SDS011;11357;49.990;7.370;2022-11-14T04:08:33;331.63;;;303.40;;
22378;SDS011;11357;49.990;7.370;2022-11-14T04:10:59;364.10;;;335.43;;
22378;SDS011;11357;49.990;7.370;2022-11-14T04:13:25;238.20;;;215.63;;
22378;SDS011;11357;49.990;7.370;2022-11-14T04:15:57;295.40;;;272.13;;
22378;SDS011;11357;49.990;7.370;2022-11-14T04:18:23;346.87;;;317.77;;
22378;SDS011;11357;49.990;7.370;2022-11-14T04:20:50;314.33;;;290.87;;
22378;SDS011;11357;49.990;7.370;2022-11-14T04:23:16;290.10;;;265.70;;
22378;SDS011;11357;49.990;7.370;2022-11-14T04:25:43;267.70;;;242.23;;
22378;SDS011;11357;49.990;7.370;2022-11-14T04:28:09;253.67;;;214.87;;
22378;SDS011;11357;49.990;7.370;2022-11-14T04:30:35;294.60;;;269.20;;
22378;SDS011;11357;49.990;7.370;2022-11-14T04:33:01;290.97;;;262.33;;
22378;SDS011;11357;49.990;7.370;2022-11-14T04:35:26;256.80;;;235.50;;
22378;SDS011;11357;49.990;7.370;2022-11-14T04:37:52;226.33;;;206.33;;
22378;SDS011;11357;49.990;7.370;2022-11-14T04:40:17;262.70;;;241.90;;
22378;SDS011;11357;49.990;7.370;2022-11-14T04:42:43;194.23;;;176.80;;
22378;SDS011;11357;49.990;7.370;2022-11-14T04:45:09;168.17;;;152.50;;
22378;SDS011;11357;49.990;7.370;2022-11-14T04:47:35;192.23;;;174.57;;
22378;SDS011;11357;49.990;7.370;2022-11-14T04:50:00;127.60;;;115.37;;
22378;SDS011;11357;49.990;7.370;2022-11-14T04:52:27;168.33;;;153.03;;
22378;SDS011;11357;49.990;7.370;2022-11-14T04:54:53;146.83;;;130.90;;
22378;SDS011;11357;49.990;7.370;2022-11-14T04:57:18;211.57;;;192.40;;
22378;SDS011;11357;49.990;7.370;2022-11-14T04:59:44;282.43;;;260.43;;
22378;SDS011;11357;49.990;7.370;2022-11-14T05:02:09;213.63;;;197.67;;
22378;SDS011;11357;49.990;7.370;2022-11-14T05:04:35;251.97;;;232.93;;
22378;SDS011;11357;49.990;7.370;2022-11-14T05:07:01;161.03;;;147.77;;
22378;SDS011;11357;49.990;7.370;2022-11-14T05:09:27;294.43;;;271.47;;
22378;SDS011;11357;49.990;7.370;2022-11-14T05:11:53;135.10;;;123.23;;
22378;SDS011;11357;49.990;7.370;2022-11-14T05:14:18;212.60;;;197.20;;
22378;SDS011;11357;49.990;7.370;2022-11-14T05:16:44;272.93;;;252.97;;
22378;SDS011;11357;49.990;7.370;2022-11-14T05:19:09;180.43;;;166.57;;
22378;SDS011;11357;49.990;7.370;2022-11-14T05:21:35;76.67;;;70.10;;
22378;SDS011;11357;49.990;7.370;2022-11-14T05:24:01;88.60;;;81.70;;
22378;SDS011;11357;49.990;7.370;2022-11-14T05:26:26;143.53;;;132.87;;
22378;SDS011;11357;49.990;7.370;2022-11-14T05:28:52;160.23;;;148.83;;
22378;SDS011;11357;49.990;7.370;2022-11-14T05:31:18;145.40;;;134.67;;
22378;SDS011;11357;49.990;7.370;2022-11-14T05:33:44;178.53;;;165.90;;
22378;SDS011;11357;49.990;7.370;2022-11-14T05:36:12;256.13;;;238.30;;
22378;SDS011;11357;49.990;7.370;2022-11-14T05:38:39;101.87;;;92.27;;
22378;SDS011;11357;49.990;7.370;2022-11-14T05:41:05;132.60;;;122.63;;
22378;SDS011;11357;49.990;7.370;2022-11-14T05:43:32;240.00;;;221.40;;
22378;SDS011;11357;49.990;7.370;2022-11-14T05:46:02;185.77;;;172.43;;
22378;SDS011;11357;49.990;7.370;2022-11-14T05:48:29;79.23;;;71.63;;
22378;SDS011;11357;49.990;7.370;2022-11-14T05:50:59;31.27;;;16.37;;
22378;SDS011;11357;49.990;7.370;2022-11-14T05:53:26;68.80;;;62.67;;
22378;SDS011;11357;49.990;7.370;2022-11-14T05:55:53;128.10;;;118.30;;
22378;SDS011;11357;49.990;7.370;2022-11-14T05:58:19;106.13;;;96.60;;
22378;SDS011;11357;49.990;7.370;2022-11-14T06:00:45;151.07;;;138.40;;
22378;SDS011;11357;49.990;7.370;2022-11-14T06:03:11;124.60;;;105.53;;
22378;SDS011;11357;49.990;7.370;2022-11-14T06:05:39;103.97;;;90.80;;
22378;SDS011;11357;49.990;7.370;2022-11-14T06:08:05;118.23;;;107.13;;
22378;SDS011;11357;49.990;7.370;2022-11-14T06:10:31;247.13;;;181.53;;
22378;SDS011;11357;49.990;7.370;2022-11-14T06:12:59;201.60;;;183.73;;
22378;SDS011;11357;49.990;7.370;2022-11-14T06:15:25;174.30;;;159.70;;
22378;SDS011;11357;49.990;7.370;2022-11-14T06:17:51;207.23;;;190.37;;
22378;SDS011;11357;49.990;7.370;2022-11-14T06:20:17;83.30;;;49.23;;
22378;SDS011;11357;49.990;7.370;2022-11-14T06:22:43;134.77;;;95.47;;
22378;SDS011;11357;49.990;7.370;2022-11-14T06:25:09;239.23;;;218.93;;
22378;SDS011;11357;49.990;7.370;2022-11-14T06:27:34;168.47;;;152.43;;
22378;SDS011;11357;49.990;7.370;2022-11-14T06:30:00;220.93;;;200.67;;
22378;SDS011;11357;49.990;7.370;2022-11-14T06:32:26;241.57;;;218.50;;
22378;SDS011;11357;49.990;7.370;2022-11-14T06:34:52;162.23;;;149.70;;
22378;SDS011;11357;49.990;7.370;2022-11-14T06:37:17;169.10;;;133.23;;
22378;SDS011;11357;49.990;7.370;2022-11-14T06:39:43;211.33;;;189.60;;
22378;SDS011;11357;49.990;7.370;2022-11-14T06:42:09;260.37;;;232.23;;
22378;SDS011;11357;49.990;7.370;2022-11-14T06:44:34;162.77;;;149.17;;
22378;SDS011;11357;49.990;7.370;2022-11-14T06:47:00;363.03;;;335.13;;
22378;SDS011;11357;49.990;7.370;2022-11-14T06:49:26;265.67;;;243.73;;
22378;SDS011;11357;49.990;7.370;2022-11-14T06:51:52;342.53;;;316.40;;
22378;SDS011;11357;49.990;7.370;2022-11-14T06:54:18;307.43;;;283.10;;
22378;SDS011;11357;49.990;7.370;2022-11-14T06:56:43;260.33;;;240.47;;
22378;SDS011;11357;49.990;7.370;2022-11-14T06:59:09;281.17;;;258.80;;
22378;SDS011;11357;49.990;7.370;2022-11-14T07:01:35;236.80;;;218.07;;
22378;SDS011;11357;49.990;7.370;2022-11-14T07:04:01;307.63;;;284.10;;
22378;SDS011;11357;49.990;7.370;2022-11-14T07:06:27;304.70;;;281.03;;
22378;SDS011;11357;49.990;7.370;2022-11-14T07:08:55;201.97;;;187.50;;
22378;SDS011;11357;49.990;7.370;2022-11-14T07:11:22;203.87;;;188.90;;
22378;SDS011;11357;49.990;7.370;2022-11-14T07:13:52;56.70;;;51.57;;
22378;SDS011;11357;49.990;7.370;2022-11-14T07:16:23;233.70;;;216.27;;
22378;SDS011;11357;49.990;7.370;2022-11-14T07:18:57;216.33;;;200.40;;
22378;SDS011;11357;49.990;7.370;2022-11-14T07:21:27;306.70;;;284.70;;
22378;SDS011;11357;49.990;7.370;2022-11-14T07:23:54;321.07;;;298.73;;
22378;SDS011;11357;49.990;7.370;2022-11-14T07:26:21;394.93;;;366.30;;
22378;SDS011;11357;49.990;7.370;2022-11-14T07:28:47;411.00;;;380.83;;
22378;SDS011;11357;49.990;7.370;2022-11-14T07:31:13;408.03;;;378.53;;
22378;SDS011;11357;49.990;7.370;2022-11-14T07:33:41;438.00;;;404.43;;
22378;SDS011;11357;49.990;7.370;2022-11-14T07:36:07;408.57;;;378.53;;
22378;SDS011;11357;49.990;7.370;2022-11-14T07:38:34;451.30;;;418.57;;
22378;SDS011;11357;49.990;7.370;2022-11-14T07:41:02;432.00;;;399.40;;
22378;SDS011;11357;49.990;7.370;2022-11-14T07:43:32;438.97;;;407.03;;
22378;SDS011;11357;49.990;7.370;2022-11-14T07:45:58;436.30;;;403.37;;
22378;SDS011;11357;49.990;7.370;2022-11-14T07:48:25;404.23;;;375.27;;
22378;SDS011;11357;49.990;7.370;2022-11-14T07:50:50;429.63;;;397.97;;
22378;SDS011;11357;49.990;7.370;2022-11-14T07:53:17;460.03;;;425.50;;
22378;SDS011;11357;49.990;7.370;2022-11-14T07:55:43;437.63;;;407.37;;
22378;SDS011;11357;49.990;7.370;2022-11-14T07:58:09;392.97;;;365.50;;
22378;SDS011;11357;49.990;7.370;2022-11-14T08:00:34;400.47;;;373.23;;
22378;SDS011;11357;49.990;7.370;2022-11-14T08:03:00;371.97;;;346.47;;
22378;SDS011;11357;49.990;7.370;2022-11-14T08:05:26;374.07;;;348.13;;
22378;SDS011;11357;49.990;7.370;2022-11-14T08:07:52;353.73;;;329.70;;
22378;SDS011;11357;49.990;7.370;2022-11-14T08:10:18;289.97;;;270.43;;
22378;SDS011;11357;49.990;7.370;2022-11-14T08:12:44;310.13;;;289.37;;
22378;SDS011;11357;49.990;7.370;2022-11-14T08:15:11;338.10;;;316.07;;
22378;SDS011;11357;49.990;7.370;2022-11-14T08:17:38;365.40;;;339.80;;
22378;SDS011;11357;49.990;7.370;2022-11-14T08:20:04;371.60;;;346.17;;
22378;SDS011;11357;49.990;7.370;2022-11-14T08:22:31;309.73;;;289.60;;
22378;SDS011;11357;49.990;7.370;2022-11-14T08:24:57;302.37;;;282.43;;
22378;SDS011;11357;49.990;7.370;2022-11-14T08:27:23;362.73;;;337.70;;
22378;SDS011;11357;49.990;7.370;2022-11-14T08:29:49;367.37;;;341.77;;
22378;SDS011;11357;49.990;7.370;2022-11-14T08:32:16;382.37;;;354.97;;
22378;SDS011;11357;49.990;7.370;2022-11-14T08:34:42;403.13;;;374.33;;
22378;SDS011;11357;49.990;7.370;2022-11-14T08:37:08;387.03;;;359.83;;
22378;SDS011;11357;49.990;7.370;2022-11-14T08:39:33;407.00;;;379.27;;
22378;SDS011;11357;49.990;7.370;2022-11-14T08:41:59;460.70;;;427.33;;
22378;SDS011;11357;49.990;7.370;2022-11-14T08:44:25;451.17;;;418.60;;
22378;SDS011;11357;49.990;7.370;2022-11-14T08:46:50;452.67;;;419.27;;
22378;SDS011;11357;49.990;7.370;2022-11-14T08:49:16;441.07;;;408.07;;
22378;SDS011;11357;49.990;7.370;2022-11-14T08:51:42;496.47;;;459.63;;
22378;SDS011;11357;49.990;7.370;2022-11-14T08:54:07;463.97;;;430.10;;
22378;SDS011;11357;49.990;7.370;2022-11-14T08:56:33;446.87;;;413.43;;
22378;SDS011;11357;49.990;7.370;2022-11-14T08:59:01;467.20;;;431.67;;
22378;SDS011;11357;49.990;7.370;2022-11-14T09:01:30;495.47;;;457.33;;
22378;SDS011;11357;49.990;7.370;2022-11-14T09:03:58;443.83;;;411.50;;
22378;SDS011;11357;49.990;7.370;2022-11-14T09:06:24;525.20;;;482.27;;
22378;SDS011;11357;49.990;7.370;2022-11-14T09:08:50;582.53;;;534.07;;
22378;SDS011;11357;49.990;7.370;2022-11-14T09:11:16;558.73;;;513.27;;
22378;SDS011;11357;49.990;7.370;2022-11-14T09:13:41;519.50;;;478.00;;
22378;SDS011;11357;49.990;7.370;2022-11-14T09:16:07;483.70;;;445.73;;
22378;SDS011;11357;49.990;7.370;2022-11-14T09:18:33;565.07;;;518.17;;
22378;SDS011;11357;49.990;7.370;2022-11-14T09:21:03;616.43;;;562.30;;
22378;SDS011;11357;49.990;7.370;2022-11-14T09:23:31;532.43;;;484.20;;
22378;SDS011;11357;49.990;7.370;2022-11-14T09:25:57;565.43;;;519.03;;
22378;SDS011;11357;49.990;7.370;2022-11-14T09:28:23;534.67;;;491.43;;
22378;SDS011;11357;49.990;7.370;2022-11-14T09:30:49;495.07;;;455.73;;
22378;SDS011;11357;49.990;7.370;2022-11-14T09:33:14;628.20;;;568.17;;
22378;SDS011;11357;49.990;7.370;2022-11-14T09:35:40;617.93;;;562.00;;
22378;SDS011;11357;49.990;7.370;2022-11-14T09:40:44;655.23;;;597.83;;
22378;SDS011;11357;49.990;7.370;2022-11-14T09:43:32;480.33;;;438.40;;
22378;SDS011;11357;49.990;7.370;2022-11-14T09:46:03;553.73;;;508.57;;
22378;SDS011;11357;49.990;7.370;2022-11-14T09:48:36;435.67;;;399.67;;
22378;SDS011;11357;49.990;7.370;2022-11-14T09:51:04;537.37;;;492.20;;
22378;SDS011;11357;49.990;7.370;2022-11-14T09:56:32;519.20;;;475.47;;
22378;SDS011;11357;49.990;7.370;2022-11-14T09:58:58;606.40;;;552.83;;
22378;SDS011;11357;49.990;7.370;2022-11-14T10:03:59;578.30;;;527.33;;
22378;SDS011;11357;49.990;7.370;2022-11-14T10:12:27;553.80;;;507.57;;
22378;SDS011;11357;49.990;7.370;2022-11-14T10:26:10;453.93;;;418.83;;
22378;SDS011;11357;49.990;7.370;2022-11-14T10:42:02;461.33;;;425.43;;
22378;SDS011;11357;49.990;7.370;2022-11-14T10:44:37;546.83;;;499.17;;
22378;SDS011;11357;49.990;7.370;2022-11-14T10:47:13;480.37;;;440.77;;
22378;SDS011;11357;49.990;7.370;2022-11-14T10:49:42;552.90;;;506.23;;
22378;SDS011;11357;49.990;7.370;2022-11-14T10:52:12;570.83;;;520.80;;
22378;SDS011;11357;49.990;7.370;2022-11-14T10:54:49;513.30;;;470.67;;
22378;SDS011;11357;49.990;7.370;2022-11-14T10:57:20;466.93;;;429.20;;
22378;SDS011;11357;49.990;7.370;2022-11-14T10:59:46;486.40;;;450.50;;
22378;SDS011;11357;49.990;7.370;2022-11-14T11:02:15;635.73;;;579.37;;
22378;SDS011;11357;49.990;7.370;2022-11-14T11:04:42;649.30;;;593.07;;
22378;SDS011;11357;49.990;7.370;2022-11-14T11:09:35;389.53;;;359.70;;
22378;SDS011;11357;49.990;7.370;2022-11-14T11:12:22;395.10;;;363.00;;
22378;SDS011;11357;49.990;7.370;2022-11-14T11:15:20;458.07;;;422.23;;
22378;SDS011;11357;49.990;7.370;2022-11-14T11:17:54;349.43;;;323.57;;
22378;SDS011;11357;49.990;7.370;2022-11-14T11:20:34;556.57;;;511.10;;
22378;SDS011;11357;49.990;7.370;2022-11-14T11:25:33;564.20;;;518.57;;
22378;SDS011;11357;49.990;7.370;2022-11-14T11:28:09;600.20;;;548.33;;
22378;SDS011;11357;49.990;7.370;2022-11-14T11:30:39;532.03;;;490.50;;
22378;SDS011;11357;49.990;7.370;2022-11-14T11:35:44;682.63;;;618.90;;
22378;SDS011;11357;49.990;7.370;2022-11-14T11:38:12;672.90;;;606.57;;
22378;SDS011;11357;49.990;7.370;2022-11-14T11:40:40;611.60;;;558.37;;
22378;SDS011;11357;49.990;7.370;2022-11-14T11:46:07;516.80;;;476.53;;
22378;SDS011;11357;49.990;7.370;2022-11-14T11:48:39;426.80;;;393.77;;
22378;SDS011;11357;49.990;7.370;2022-11-14T11:51:09;566.57;;;522.60;;
22378;SDS011;11357;49.990;7.370;2022-11-14T11:53:41;559.10;;;511.83;;
22378;SDS011;11357;49.990;7.370;2022-11-14T11:56:11;620.97;;;564.53;;
22378;SDS011;11357;49.990;7.370;2022-11-14T12:01:17;643.00;;;582.73;;
22378;SDS011;11357;49.990;7.370;2022-11-14T12:03:47;641.63;;;579.53;;
22378;SDS011;11357;49.990;7.370;2022-11-14T12:06:15;657.00;;;601.43;;
22378;SDS011;11357;49.990;7.370;2022-11-14T12:11:28;623.90;;;572.53;;
22378;SDS011;11357;49.990;7.370;2022-11-14T12:16:45;624.67;;;574.43;;
22378;SDS011;11357;49.990;7.370;2022-11-14T12:30:21;607.07;;;553.87;;
22378;SDS011;11357;49.990;7.370;2022-11-14T12:33:02;735.50;;;658.60;;
22378;SDS011;11357;49.990;7.370;2022-11-14T12:35:35;658.83;;;593.20;;
22378;SDS011;11357;49.990;7.370;2022-11-14T12:38:03;755.60;;;676.27;;
22378;SDS011;11357;49.990;7.370;2022-11-14T12:40:37;727.90;;;653.17;;
22378;SDS011;11357;49.990;7.370;2022-11-14T12:43:27;709.70;;;636.00;;
22378;SDS011;11357;49.990;7.370;2022-11-14T12:50:51;555.97;;;507.47;;
22378;SDS011;11357;49.990;7.370;2022-11-14T12:56:23;666.10;;;598.57;;
22378;SDS011;11357;49.990;7.370;2022-11-14T13:02:52;553.23;;;504.97;;
22378;SDS011;11357;49.990;7.370;2022-11-14T13:05:15;732.83;;;656.63;;
22378;SDS011;11357;49.990;7.370;2022-11-14T13:08:02;709.47;;;637.47;;
22378;SDS011;11357;49.990;7.370;2022-11-14T13:10:37;730.77;;;655.80;;
22378;SDS011;11357;49.990;7.370;2022-11-14T13:13:08;869.10;;;697.97;;
22378;SDS011;11357;49.990;7.370;2022-11-14T13:15:55;831.07;;;717.67;;
22378;SDS011;11357;49.990;7.370;2022-11-14T13:19:28;788.83;;;677.67;;
22378;SDS011;11357;49.990;7.370;2022-11-14T13:27:24;706.47;;;635.07;;
22378;SDS011;11357;49.990;7.370;2022-11-14T13:29:53;1000.37;;;762.23;;
22378;SDS011;11357;49.990;7.370;2022-11-14T13:52:22;788.07;;;706.00;;
22378;SDS011;11357;49.990;7.370;2022-11-14T13:54:52;942.00;;;744.77;;
22378;SDS011;11357;49.990;7.370;2022-11-14T13:57:31;940.93;;;747.53;;
22378;SDS011;11357;49.990;7.370;2022-11-14T14:00:13;847.73;;;731.80;;
22378;SDS011;11357;49.990;7.370;2022-11-14T14:11:01;882.00;;;736.67;;
22378;SDS011;11357;49.990;7.370;2022-11-14T14:16:35;821.63;;;706.73;;
22378;SDS011;11357;49.990;7.370;2022-11-14T14:19:21;847.70;;;739.27;;
22378;SDS011;11357;49.990;7.370;2022-11-14T14:32:34;1082.67;;;781.93;;
22378;SDS011;11357;49.990;7.370;2022-11-14T14:37:51;1121.77;;;800.53;;
22378;SDS011;11357;49.990;7.370;2022-11-14T14:40:22;963.57;;;735.03;;
22378;SDS011;11357;49.990;7.370;2022-11-14T14:42:48;1166.67;;;798.93;;
22378;SDS011;11357;49.990;7.370;2022-11-14T14:45:16;1220.80;;;829.93;;
22378;SDS011;11357;49.990;7.370;2022-11-14T14:47:47;1148.53;;;726.70;;
22378;SDS011;11357;49.990;7.370;2022-11-14T14:50:20;993.27;;;791.93;;
22378;SDS011;11357;49.990;7.370;2022-11-14T14:52:57;984.23;;;763.13;;
22378;SDS011;11357;49.990;7.370;2022-11-14T14:55:28;766.30;;;687.37;;
22378;SDS011;11357;49.990;7.370;2022-11-14T14:58:11;646.27;;;593.23;;
22378;SDS011;11357;49.990;7.370;2022-11-14T15:00:39;827.53;;;707.20;;
22378;SDS011;11357;49.990;7.370;2022-11-14T15:03:13;863.83;;;720.67;;
22378;SDS011;11357;49.990;7.370;2022-11-14T15:05:39;833.23;;;750.20;;
22378;SDS011;11357;49.990;7.370;2022-11-14T15:08:04;791.03;;;711.03;;
22378;SDS011;11357;49.990;7.370;2022-11-14T15:10:30;692.87;;;635.27;;
22378;SDS011;11357;49.990;7.370;2022-11-14T15:12:56;748.17;;;673.57;;
22378;SDS011;11357;49.990;7.370;2022-11-14T15:15:23;911.17;;;768.53;;
22378;SDS011;11357;49.990;7.370;2022-11-14T15:17:52;727.93;;;642.07;;
22378;SDS011;11357;49.990;7.370;2022-11-14T15:25:39;574.80;;;528.83;;
22378;SDS011;11357;49.990;7.370;2022-11-14T15:28:38;929.50;;;757.37;;
22378;SDS011;11357;49.990;7.370;2022-11-14T15:31:01;693.10;;;615.37;;
22378;SDS011;11357;49.990;7.370;2022-11-14T15:33:29;595.83;;;541.93;;
22378;SDS011;11357;49.990;7.370;2022-11-14T15:36:09;826.87;;;680.43;;
22378;SDS011;11357;49.990;7.370;2022-11-14T15:38:56;767.43;;;687.50;;
22378;SDS011;11357;49.990;7.370;2022-11-14T15:41:28;750.47;;;664.30;;
22378;SDS011;11357;49.990;7.370;2022-11-14T15:43:57;953.90;;;747.43;;
22378;SDS011;11357;49.990;7.370;2022-11-14T15:51:43;782.70;;;690.77;;
22378;SDS011;11357;49.990;7.370;2022-11-14T15:56:45;834.83;;;730.03;;
22378;SDS011;11357;49.990;7.370;2022-11-14T15:59:11;747.27;;;672.10;;
22378;SDS011;11357;49.990;7.370;2022-11-14T16:01:36;799.03;;;699.00;;
22378;SDS011;11357;49.990;7.370;2022-11-14T16:04:02;680.57;;;617.47;;
22378;SDS011;11357;49.990;7.370;2022-11-14T16:06:29;728.07;;;653.50;;
22378;SDS011;11357;49.990;7.370;2022-11-14T16:08:57;619.57;;;566.97;;
22378;SDS011;11357;49.990;7.370;2022-11-14T16:11:22;654.40;;;595.70;;
22378;SDS011;11357;49.990;7.370;2022-11-14T16:13:48;686.60;;;623.73;;
22378;SDS011;11357;49.990;7.370;2022-11-14T16:16:13;635.07;;;576.07;;
22378;SDS011;11357;49.990;7.370;2022-11-14T16:18:39;651.93;;;594.03;;
22378;SDS011;11357;49.990;7.370;2022-11-14T16:21:04;649.93;;;593.17;;
22378;SDS011;11357;49.990;7.370;2022-11-14T16:23:33;676.67;;;614.13;;
22378;SDS011;11357;49.990;7.370;2022-11-14T16:25:58;664.43;;;604.80;;
22378;SDS011;11357;49.990;7.370;2022-11-14T16:28:24;655.90;;;594.47;;
22378;SDS011;11357;49.990;7.370;2022-11-14T16:30:49;654.17;;;595.60;;
22378;SDS011;11357;49.990;7.370;2022-11-14T16:33:15;637.10;;;581.57;;